Time;durP1;ratioP1;P1;durP2;ratioP2;P2;SDS_P1;SDS_P2;PMS_P1;PMS_P2;Temp;Humidity;BMP_temperature;BMP_pressure;BME280_temperature;BME280_humidity;BME280_pressure;Samples;Min_cycle;Max_cycle;Signal;HPM_P1;HPM_P2
2023/10/22 06:28:10;;;;;;;7.68;1.48;;;;;;;8.24;90.44;95940.56;2084819;28;20554;-71
2023/10/22 06:33:26;;;;;;;5.63;1.73;;;;;;;8.62;88.44;95931.84;2085156;28;20927;-71
2023/10/22 06:37:07;;;;;;;7.63;1.88;;;;;;;9.08;86.34;95934.81;2083761;27;20564;-66
2023/10/22 06:38:10;;;;;;;5.15;1.25;;;;;;;9.10;86.15;95939.94;2082117;28;20575;-66
2023/10/22 06:41:34;;;;;;;9.73;1.70;;;;;;;9.21;85.37;95940.25;2098685;27;20551;-66
2023/10/22 06:42:36;;;;;;;3.72;1.00;;;;;;;9.32;84.56;95943.16;2106485;28;20638;-67
2023/10/22 06:43:37;;;;;;;6.40;1.27;;;;;;;9.59;84.35;95947.03;2102960;28;20200;-66
2023/10/22 06:44:42;;;;;;;5.28;1.02;;;;;;;9.75;83.43;95941.84;2093775;28;20253;-66
2023/10/22 06:45:44;;;;;;;1.80;0.93;;;;;;;9.74;83.46;95945.41;2094677;28;20202;-66
2023/10/22 06:46:45;;;;;;;10.77;1.30;;;;;;;9.75;83.25;95944.44;2094656;28;20814;-66
2023/10/22 06:47:47;;;;;;;3.28;1.05;;;;;;;9.93;82.67;95942.66;2094059;28;20195;-67
2023/10/22 06:48:48;;;;;;;9.63;1.50;;;;;;;9.88;82.30;95939.44;2095039;28;20195;-66
2023/10/22 06:49:50;;;;;;;5.82;1.25;;;;;;;10.12;81.74;95952.97;2094816;28;20200;-66
2023/10/22 06:50:52;;;;;;;7.90;1.30;;;;;;;10.26;80.98;95953.03;2093108;28;20291;-67
2023/10/22 06:51:53;;;;;;;3.05;1.02;;;;;;;10.37;81.25;95949.84;2094234;28;20228;-67
2023/10/22 06:52:55;;;;;;;6.72;1.30;;;;;;;10.66;80.41;95949.19;2095752;28;20199;-67
2023/10/22 06:53:56;;;;;;;7.20;1.30;;;;;;;10.85;78.77;95955.03;2094662;28;20204;-67
2023/10/22 06:54:58;;;;;;;3.72;0.80;;;;;;;10.77;78.98;95954.66;2094319;28;20230;-67
2023/10/22 06:56:02;;;;;;;8.95;1.50;;;;;;;10.92;78.50;95955.56;2094770;28;20244;-67
2023/10/22 06:57:04;;;;;;;4.57;1.35;;;;;;;10.97;78.01;95961.34;2097311;28;20219;-67
2023/10/22 06:58:05;;;;;;;4.05;1.08;;;;;;;11.26;77.37;95967.50;2094384;28;20597;-67
2023/10/22 06:59:07;;;;;;;7.95;1.30;;;;;;;11.66;76.87;95959.09;2094117;28;20192;-67
2023/10/22 07:00:09;;;;;;;9.52;1.25;;;;;;;11.55;76.00;95951.91;2095534;28;20184;-67
2023/10/22 07:01:13;;;;;;;4.32;1.15;;;;;;;12.06;74.72;95953.22;2089934;28;20224;-67
2023/10/22 07:02:16;;;;;;;5.10;1.30;;;;;;;11.95;74.90;95960.84;2086655;28;20639;-67
2023/10/22 07:03:17;;;;;;;4.45;1.15;;;;;;;12.10;74.29;95959.97;2087137;28;20193;-67
2023/10/22 07:04:19;;;;;;;5.57;0.90;;;;;;;12.33;73.76;95957.69;2086794;28;20197;-67
2023/10/22 07:05:22;;;;;;;3.10;0.90;;;;;;;12.28;73.34;95957.13;2085674;28;20594;-67
2023/10/22 07:06:23;;;;;;;5.45;1.33;;;;;;;12.40;73.44;95961.59;2085502;28;20213;-67
2023/10/22 07:07:25;;;;;;;7.78;1.10;;;;;;;12.83;72.61;95958.03;2085715;28;20197;-67
2023/10/22 07:08:28;;;;;;;7.10;1.13;;;;;;;12.88;72.22;95961.19;2090662;28;20210;-67
2023/10/22 07:09:29;;;;;;;6.35;1.15;;;;;;;12.93;72.42;95958.28;2090378;28;20203;-67
2023/10/22 07:10:31;;;;;;;3.78;1.02;;;;;;;12.95;70.78;95961.63;2087012;28;20185;-67
2023/10/22 07:11:33;;;;;;;5.00;1.00;;;;;;;13.04;71.59;95969.75;2085547;28;20337;-68
2023/10/22 07:12:35;;;;;;;7.40;1.52;;;;;;;12.86;71.39;95961.31;2086322;28;20219;-67
2023/10/22 07:13:37;;;;;;;4.57;1.20;;;;;;;12.92;71.50;95961.84;2087963;28;20646;-67
2023/10/22 07:14:38;;;;;;;3.75;1.00;;;;;;;13.05;71.23;95971.44;2086700;28;20200;-67
2023/10/22 07:15:40;;;;;;;5.10;1.13;;;;;;;13.04;71.04;95971.53;2088504;28;20189;-67
2023/10/22 07:16:43;;;;;;;7.35;1.15;;;;;;;13.01;70.75;95962.06;2087078;28;20656;-67
2023/10/22 07:17:46;;;;;;;10.77;1.23;;;;;;;13.47;70.21;95968.72;2087733;28;20197;-67
2023/10/22 07:18:48;;;;;;;4.22;1.20;;;;;;;13.27;69.59;95974.41;2088403;28;20203;-67
2023/10/22 07:19:49;;;;;;;7.30;1.52;;;;;;;13.25;70.71;95969.25;2086376;28;20220;-66
2023/10/22 07:20:51;;;;;;;6.10;1.55;;;;;;;13.35;70.19;95965.09;2085458;28;20291;-67
2023/10/22 07:21:52;;;;;;;4.70;1.30;;;;;;;13.29;70.19;95975.16;2084719;28;20286;-67
2023/10/22 07:22:54;;;;;;;5.32;1.35;;;;;;;13.22;70.39;95975.56;2097782;28;20674;-67
2023/10/22 07:23:55;;;;;;;11.00;1.10;;;;;;;13.37;70.30;95976.34;2096498;28;20630;-67
2023/10/22 07:24:57;;;;;;;9.20;1.10;;;;;;;13.81;69.62;95974.28;2085315;28;20338;-67
2023/10/22 07:25:58;;;;;;;3.22;1.10;;;;;;;14.17;67.32;95977.09;2088461;28;20279;-67
2023/10/22 07:27:00;;;;;;;6.60;1.00;;;;;;;13.97;68.18;95976.72;2087821;28;20196;-67
2023/10/22 07:28:02;;;;;;;9.50;1.40;;;;;;;13.76;68.31;95973.75;2086044;28;20254;-67
2023/10/22 07:29:04;;;;;;;9.70;1.30;;;;;;;14.09;67.80;95976.81;2084421;28;20201;-67
2023/10/22 07:30:06;;;;;;;7.70;1.35;;;;;;;14.45;66.80;95980.41;2085898;28;20563;-67
2023/10/22 07:31:09;;;;;;;11.73;1.35;;;;;;;14.13;67.05;95975.63;2083866;28;20216;-67
2023/10/22 07:32:10;;;;;;;7.15;1.20;;;;;;;13.85;67.73;95974.91;2086114;28;20200;-67
2023/10/22 07:33:12;;;;;;;8.30;1.25;;;;;;;13.86;68.32;95979.22;2086583;28;20302;-67
2023/10/22 07:34:14;;;;;;;4.85;1.02;;;;;;;14.03;67.37;95986.78;2087987;28;20279;-66
2023/10/22 07:35:16;;;;;;;6.10;1.30;;;;;;;14.28;67.01;95977.19;2086069;28;20200;-67
2023/10/22 07:36:18;;;;;;;5.72;1.52;;;;;;;14.20;66.66;95971.66;2085638;28;20438;-66
2023/10/22 07:37:19;;;;;;;5.85;1.35;;;;;;;14.45;66.00;95973.38;2087048;28;20193;-66
2023/10/22 07:38:22;;;;;;;6.78;1.27;;;;;;;14.35;66.32;95986.31;2085735;28;20234;-67
2023/10/22 07:39:24;;;;;;;5.53;1.27;;;;;;;13.86;67.09;95984.47;2085695;28;20197;-66
2023/10/22 07:40:25;;;;;;;12.30;1.30;;;;;;;14.10;67.34;95983.75;2087309;28;20220;-67
2023/10/22 07:41:27;;;;;;;6.80;1.20;;;;;;;14.15;67.12;95989.50;2086388;28;20929;-67
2023/10/22 07:42:30;;;;;;;6.10;1.20;;;;;;;14.44;66.73;95987.47;2085574;28;20193;-67
2023/10/22 07:43:32;;;;;;;5.22;1.35;;;;;;;14.41;66.87;95987.69;2086108;28;20192;-67
2023/10/22 07:44:33;;;;;;;9.27;1.40;;;;;;;14.60;66.01;95991.63;2087377;28;20713;-67
2023/10/22 07:45:38;;;;;;;3.10;1.05;;;;;;;14.44;65.84;95991.91;2085605;28;20196;-67
2023/10/22 07:46:39;;;;;;;5.80;1.35;;;;;;;14.60;65.82;95991.63;2081338;28;20219;-66
2023/10/22 07:47:41;;;;;;;7.32;1.20;;;;;;;14.40;65.73;95990.41;2082003;28;20193;-66
2023/10/22 07:48:44;;;;;;;3.30;1.15;;;;;;;14.65;65.56;95995.66;2088971;28;20738;-67
2023/10/22 07:49:51;;;;;;;5.20;1.42;;;;;;;14.54;64.79;95993.75;2089436;28;20204;-66
2023/10/22 07:50:52;;;;;;;5.03;1.27;;;;;;;14.89;64.39;95994.00;2086626;28;20473;-67
2023/10/22 07:51:54;;;;;;;4.78;1.20;;;;;;;14.66;64.92;95999.09;2087075;28;20188;-67
2023/10/22 07:52:56;;;;;;;3.78;1.65;;;;;;;14.59;65.15;95992.56;2082506;28;20201;-63
2023/10/22 07:53:57;;;;;;;7.25;1.40;;;;;;;14.64;65.28;95993.97;2082059;28;20205;-63
2023/10/22 07:54:59;;;;;;;10.90;3.30;;;;;;;14.34;65.70;95996.94;2079829;28;20205;-63
2023/10/22 07:56:00;;;;;;;10.45;5.10;;;;;;;14.69;65.64;96004.16;2081622;28;20562;-64
2023/10/22 07:57:02;;;;;;;6.40;1.00;;;;;;;14.56;64.79;95998.06;2080199;28;20223;-64
2023/10/22 07:58:03;;;;;;;15.23;1.40;;;;;;;14.34;65.34;96003.03;2080125;28;20210;-65
2023/10/22 07:59:05;;;;;;;4.45;1.60;;;;;;;14.45;65.79;96002.28;2080713;28;20608;-64
2023/10/22 08:00:07;;;;;;;3.75;1.25;;;;;;;14.73;64.74;96008.25;2081083;28;20201;-64
2023/10/22 08:01:09;;;;;;;5.97;1.25;;;;;;;15.07;64.41;96008.44;2079360;28;20592;-64
2023/10/22 08:02:10;;;;;;;8.10;1.67;;;;;;;15.30;63.79;96019.03;2080279;28;20288;-65
2023/10/22 08:03:12;;;;;;;5.35;1.20;;;;;;;15.32;63.13;96017.97;2080402;28;20196;-65
2023/10/22 08:04:14;;;;;;;7.03;1.40;;;;;;;15.04;63.29;96016.53;2081285;28;20675;-65
2023/10/22 08:05:16;;;;;;;6.78;1.20;;;;;;;15.38;63.00;96018.50;2081447;28;20200;-64
2023/10/22 08:06:17;;;;;;;7.28;1.70;;;;;;;15.75;62.81;96016.56;2080647;28;20217;-64
2023/10/22 08:07:19;;;;;;;17.67;1.15;;;;;;;15.80;61.95;96010.97;2081428;28;20193;-65
2023/10/22 08:08:21;;;;;;;10.52;1.20;;;;;;;15.56;62.52;96016.28;2081047;28;20579;-65
2023/10/22 08:09:23;;;;;;;6.60;1.20;;;;;;;15.90;62.80;96011.97;2079875;28;20197;-65
2023/10/22 08:10:24;;;;;;;4.22;1.08;;;;;;;16.02;61.75;96020.72;2079789;28;20186;-65
2023/10/22 08:11:26;;;;;;;3.40;1.08;;;;;;;15.93;61.52;96018.78;2079543;28;20213;-65
2023/10/22 08:12:28;;;;;;;5.28;1.40;;;;;;;15.75;62.06;96021.84;2079903;28;20552;-64
2023/10/22 08:13:29;;;;;;;4.55;1.10;;;;;;;15.62;62.59;96019.28;2080118;28;20790;-65
2023/10/22 08:14:31;;;;;;;6.95;1.20;;;;;;;15.66;61.98;96012.00;2079139;28;20200;-65
2023/10/22 08:15:34;;;;;;;6.35;1.48;;;;;;;15.77;62.81;96012.03;2081391;28;20571;-65
2023/10/22 08:16:36;;;;;;;3.53;1.15;;;;;;;16.25;61.31;96018.97;2080150;28;20266;-65
2023/10/22 08:17:43;;;;;;;2.50;1.00;;;;;;;15.99;62.12;96016.53;2088644;28;20543;-65
2023/10/22 08:18:48;;;;;;;4.97;2.15;;;;;;;16.25;61.18;96010.22;2086597;28;20308;-64
2023/10/22 08:19:50;;;;;;;10.32;2.30;;;;;;;16.11;60.59;96014.75;2080839;28;20352;-64
2023/10/22 08:20:51;;;;;;;16.70;8.25;;;;;;;16.73;60.61;96017.03;2079315;28;20201;-64
2023/10/22 08:21:53;;;;;;;5.22;1.30;;;;;;;16.69;59.46;96015.59;2080084;28;20219;-64
2023/10/22 08:22:55;;;;;;;8.07;2.40;;;;;;;16.89;58.44;96011.38;2080639;28;20192;-66
2023/10/22 08:23:56;;;;;;;7.35;1.27;;;;;;;17.68;57.11;96011.09;2079566;28;20201;-65
2023/10/22 08:24:58;;;;;;;4.90;1.00;;;;;;;17.09;57.94;96013.28;2079509;28;20197;-65
2023/10/22 08:26:00;;;;;;;8.32;1.35;;;;;;;17.19;58.25;96013.38;2078257;28;20232;-65
2023/10/22 08:27:02;;;;;;;4.07;1.10;;;;;;;16.80;58.30;96016.41;2081317;28;20197;-65
2023/10/22 08:28:04;;;;;;;9.38;1.77;;;;;;;16.92;58.74;96016.41;2081597;28;20213;-65
2023/10/22 08:29:05;;;;;;;3.47;0.90;;;;;;;17.09;58.29;96008.00;2080380;28;20244;-65
2023/10/22 08:30:07;;;;;;;4.80;1.05;;;;;;;16.90;58.92;96020.94;2080589;28;20517;-65
2023/10/22 08:31:09;;;;;;;7.45;1.08;;;;;;;17.41;57.12;96022.16;2080207;28;20228;-66
2023/10/22 08:32:10;;;;;;;4.85;1.08;;;;;;;17.76;56.78;96018.38;2080578;28;20228;-65
2023/10/22 08:33:12;;;;;;;3.45;1.33;;;;;;;18.00;56.42;96019.97;2080403;28;20843;-66
2023/10/22 08:34:14;;;;;;;3.75;1.08;;;;;;;18.00;56.09;96019.97;2081872;28;20683;-65
2023/10/22 08:35:15;;;;;;;5.05;1.30;;;;;;;17.71;56.89;96044.34;2089284;28;20200;-66
2023/10/22 08:36:17;;;;;;;6.30;1.10;;;;;;;17.21;57.07;96031.69;2087935;28;20944;-66
2023/10/22 08:37:19;;;;;;;7.22;1.40;;;;;;;17.20;57.79;96032.66;2080418;28;20201;-65
2023/10/22 08:38:20;;;;;;;4.60;1.15;;;;;;;18.03;56.20;96033.75;2080093;28;20197;-66
2023/10/22 08:39:25;;;;;;;8.07;1.30;;;;;;;18.38;55.43;96040.47;2081321;28;20192;-66
2023/10/22 08:40:27;;;;;;;4.28;1.30;;;;;;;18.09;55.59;96037.66;2083006;28;20195;-66
2023/10/22 08:41:38;;;;;;;4.88;1.33;;;;;;;17.34;56.86;96039.44;2081868;28;20224;-65
2023/10/22 08:42:40;;;;;;;3.22;1.10;;;;;;;16.85;58.00;96050.31;2079726;28;20207;-64
2023/10/22 08:43:44;;;;;;;3.50;1.00;;;;;;;16.97;57.78;96044.09;2084253;28;20193;-64
2023/10/22 08:44:51;;;;;;;6.72;1.45;;;;;;;17.26;57.54;96042.72;2081063;28;20204;-73
2023/10/22 08:45:56;;;;;;;8.48;1.50;;;;;;;17.10;57.32;96043.09;2084375;28;20205;-73
2023/10/22 08:46:57;;;;;;;10.10;1.48;;;;;;;17.33;57.32;96049.19;2080291;28;20279;-74
2023/10/22 08:48:03;;;;;;;5.00;1.10;;;;;;;17.64;56.70;96054.56;2079709;28;20197;-73
2023/10/22 08:49:06;;;;;;;2.60;0.98;;;;;;;18.22;55.34;96054.16;2080337;28;20231;-74
2023/10/22 08:50:11;;;;;;;5.03;1.17;;;;;;;17.83;55.67;96055.69;2087764;28;20229;-74
2023/10/22 08:51:13;;;;;;;10.88;1.35;;;;;;;17.94;56.37;96053.00;2085730;28;20235;-73
2023/10/22 08:52:14;;;;;;;7.55;1.45;;;;;;;17.81;56.52;96054.97;2080051;28;20254;-71
2023/10/22 08:53:16;;;;;;;4.90;1.17;;;;;;;18.28;55.17;96053.66;2080868;28;20197;-74
2023/10/22 08:54:18;;;;;;;6.40;1.20;;;;;;;18.41;55.22;96050.78;2081628;28;20197;-73
2023/10/22 08:55:21;;;;;;;10.65;1.52;;;;;;;18.70;54.95;96052.72;2089465;28;20188;-71
2023/10/22 08:56:22;;;;;;;8.43;1.40;;;;;;;17.75;55.41;96051.88;2088913;28;20212;-72
2023/10/22 08:57:24;;;;;;;6.28;1.20;;;;;;;17.56;56.55;96049.94;2080419;28;20208;-73
2023/10/22 08:58:26;;;;;;;4.07;1.00;;;;;;;17.14;57.21;96042.75;2079734;28;20663;-74
2023/10/22 08:59:29;;;;;;;6.97;1.30;;;;;;;17.11;56.98;96050.06;2082104;28;20188;-73
2023/10/22 09:00:33;;;;;;;5.95;1.40;;;;;;;17.22;57.46;96042.13;2080157;28;20189;-74
2023/10/22 09:01:34;;;;;;;6.53;1.98;;;;;;;17.44;56.89;96050.94;2080588;28;20980;-73
2023/10/22 09:02:36;;;;;;;7.75;1.30;;;;;;;17.70;56.26;96050.56;2079918;28;20644;-73
2023/10/22 09:03:37;;;;;;;6.80;1.38;;;;;;;17.79;55.48;96048.00;2080144;28;20201;-73
2023/10/22 09:04:39;;;;;;;6.32;1.27;;;;;;;18.00;55.58;96047.22;2077253;28;20221;-73
2023/10/22 09:05:42;;;;;;;4.85;1.00;;;;;;;17.87;55.68;96047.38;2080483;28;20189;-72
2023/10/22 09:06:44;;;;;;;5.45;0.95;;;;;;;18.58;54.74;96054.63;2082850;28;20287;-73
2023/10/22 09:07:53;;;;;;;8.15;1.38;;;;;;;18.44;54.29;96053.16;2080793;28;20857;-73
2023/10/22 09:08:55;;;;;;;5.70;0.98;;;;;;;18.52;54.14;96051.66;2086822;28;20941;-73
2023/10/22 09:09:57;;;;;;;4.45;1.13;;;;;;;18.00;54.32;96055.13;2086867;28;20203;-73
2023/10/22 09:11:10;;;;;;;5.72;1.40;;;;;;;17.77;55.33;96057.84;2079474;28;20228;-73
2023/10/22 09:12:13;;;;;;;5.25;1.10;;;;;;;18.18;54.54;96050.13;2079073;28;20254;-73
2023/10/22 09:13:17;;;;;;;7.53;1.70;;;;;;;18.08;54.81;96047.41;2083930;28;20258;-73
2023/10/22 09:14:22;;;;;;;6.25;1.30;;;;;;;18.58;53.92;96041.41;2083179;28;20673;-72
2023/10/22 09:15:24;;;;;;;10.10;1.83;;;;;;;19.35;52.46;96055.00;2081826;28;20185;-72
2023/10/22 09:16:34;;;;;;;10.05;1.30;;;;;;;18.96;52.98;96048.78;2080671;28;20213;-72
2023/10/22 09:17:36;;;;;;;4.82;1.70;;;;;;;18.52;53.24;96041.94;2080481;28;20217;-72
2023/10/22 09:18:44;;;;;;;4.07;1.08;;;;;;;18.32;54.03;96053.38;2080590;28;20235;-72
2023/10/22 09:19:47;;;;;;;11.20;1.65;;;;;;;18.15;54.02;96047.72;2080046;28;20228;-71
2023/10/22 09:20:49;;;;;;;4.70;1.42;;;;;;;18.20;54.01;96044.69;2079338;28;20284;-73
2023/10/22 09:21:51;;;;;;;5.47;1.38;;;;;;;18.17;53.46;96042.31;2079995;28;20616;-72
2023/10/22 09:22:52;;;;;;;3.88;1.30;;;;;;;18.98;53.69;96049.50;2080185;28;20251;-73
2023/10/22 09:24:04;;;;;;;5.97;1.80;;;;;;;18.62;53.19;96047.25;2088659;28;20232;-71
2023/10/22 09:25:06;;;;;;;6.60;1.63;;;;;;;18.94;53.44;96051.56;2079860;28;20204;-72
2023/10/22 09:26:09;;;;;;;5.32;1.33;;;;;;;18.77;53.07;96045.91;2078447;28;20240;-72
2023/10/22 09:27:11;;;;;;;7.07;1.40;;;;;;;18.68;53.10;96043.25;2080536;28;20204;-72
2023/10/22 09:28:20;;;;;;;6.25;1.25;;;;;;;18.41;53.61;96056.06;2080237;28;20201;-65
2023/10/22 09:29:21;;;;;;;7.55;1.30;;;;;;;18.73;53.35;96055.09;2087202;28;20640;-66
2023/10/22 09:30:29;;;;;;;5.82;1.10;;;;;;;18.98;53.06;96052.13;2086548;28;20253;-66
2023/10/22 09:31:32;;;;;;;6.85;1.13;;;;;;;18.88;53.58;96052.94;2078706;28;20248;-66
2023/10/22 09:32:33;;;;;;;5.72;1.20;;;;;;;18.74;52.61;96046.19;2079717;28;20280;-65
2023/10/22 09:33:41;;;;;;;4.20;1.10;;;;;;;18.52;53.10;96052.50;2079619;28;20200;-65
2023/10/22 09:34:43;;;;;;;10.93;4.35;;;;;;;17.71;54.89;96054.91;2087305;28;20347;-65
2023/10/22 09:35:59;;;;;;;5.38;1.42;;;;;;;16.95;56.61;96064.50;2088370;28;20559;-65
2023/10/22 09:37:02;;;;;;;6.50;2.08;;;;;;;18.20;54.82;96055.28;2080606;28;20280;-65
2023/10/22 09:38:04;;;;;;;7.80;2.85;;;;;;;19.14;52.39;96055.09;2079614;28;20288;-65
2023/10/22 09:39:06;;;;;;;14.60;1.95;;;;;;;18.70;52.69;96057.16;2080181;28;20209;-65
2023/10/22 09:40:21;;;;;;;8.65;1.20;;;;;;;18.31;53.20;96054.34;2079820;28;20734;-64
2023/10/22 09:41:22;;;;;;;10.75;1.45;;;;;;;17.40;55.30;96046.88;2078949;28;20724;-65
2023/10/22 09:42:27;;;;;;;6.65;1.60;;;;;;;16.72;57.13;96058.38;2081505;28;20192;-65
2023/10/22 09:43:28;;;;;;;8.07;1.15;;;;;;;17.38;55.27;96059.34;2080371;28;20204;-65
2023/10/22 09:44:31;;;;;;;5.13;1.20;;;;;;;18.01;54.42;96051.53;2078101;28;20193;-65
2023/10/22 09:45:33;;;;;;;6.07;1.63;;;;;;;18.37;52.84;96054.69;2079851;28;20770;-65
2023/10/22 09:46:35;;;;;;;8.15;1.38;;;;;;;18.68;52.59;96061.78;2079121;28;20221;-66
2023/10/22 09:47:40;;;;;;;8.20;1.70;;;;;;;18.33;53.16;96050.59;2079959;28;20386;-65
2023/10/22 09:48:43;;;;;;;7.68;1.50;;;;;;;17.01;54.48;96060.50;2078254;28;20663;-64
2023/10/22 09:49:50;;;;;;;5.38;1.25;;;;;;;16.37;54.90;96055.88;2080739;28;20239;-65
2023/10/22 09:50:53;;;;;;;8.05;1.75;;;;;;;17.10;53.05;96057.16;2079538;28;20204;-69
2023/10/22 09:51:58;;;;;;;5.65;1.45;;;;;;;15.65;55.92;96060.31;2080143;28;20280;-70
2023/10/22 09:53:02;;;;;;;9.32;1.55;;;;;;;15.26;57.47;96051.78;2088227;28;20646;-69
2023/10/22 09:54:06;;;;;;;13.55;1.67;;;;;;;16.53;53.87;96058.13;2088930;28;20200;-69
2023/10/22 09:55:14;;;;;;;10.07;1.40;;;;;;;17.60;52.25;96064.53;2079240;28;20262;-69
2023/10/22 09:56:20;;;;;;;5.65;1.60;;;;;;;18.41;51.00;96058.72;2078193;28;20216;-69
2023/10/22 09:57:28;;;;;;;7.68;1.63;;;;;;;18.70;50.19;96065.09;2079414;28;20200;-70
2023/10/22 09:58:30;;;;;;;6.47;1.30;;;;;;;18.29;49.97;96049.19;2080816;28;20185;-70
2023/10/22 09:59:32;;;;;;;5.93;1.30;;;;;;;18.38;50.49;96058.97;2079405;28;20514;-69
2023/10/22 10:00:35;;;;;;;9.88;2.03;;;;;;;18.75;49.32;96070.81;2079121;28;20280;-70
2023/10/22 10:01:51;;;;;;;4.63;0.90;;;;;;;17.70;50.52;96059.34;2078675;28;20228;-69
2023/10/22 10:02:53;;;;;;;7.97;1.48;;;;;;;17.60;51.08;96066.34;2080720;28;20255;-69
2023/10/22 10:03:58;;;;;;;5.68;1.70;;;;;;;17.79;50.79;96066.50;2079769;28;20197;-70
2023/10/22 10:05:02;;;;;;;7.13;1.40;;;;;;;16.61;53.02;96067.13;2079821;28;20946;-70
2023/10/22 10:06:06;;;;;;;7.50;1.30;;;;;;;15.45;55.28;96070.53;2081362;28;20232;-69
2023/10/22 10:07:07;;;;;;;8.60;1.50;;;;;;;14.92;56.80;96072.63;2087573;28;20238;-69
2023/10/22 10:08:09;;;;;;;7.35;1.60;;;;;;;14.76;57.16;96073.72;2087880;28;21132;-69
2023/10/22 10:09:11;;;;;;;7.72;1.38;;;;;;;14.55;57.55;96078.66;2081514;28;20201;-69
2023/10/22 10:10:13;;;;;;;9.10;1.55;;;;;;;14.43;58.06;96074.25;2081842;28;20204;-69
2023/10/22 10:11:15;;;;;;;7.53;1.40;;;;;;;14.75;58.25;96071.19;2081566;28;20338;-69
2023/10/22 10:12:17;;;;;;;10.35;1.70;;;;;;;15.22;57.63;96081.91;2079080;28;20280;-69
2023/10/22 10:13:19;;;;;;;10.80;1.60;;;;;;;15.88;56.33;96078.88;2082795;28;20276;-69
2023/10/22 10:14:35;;;;;;;5.80;1.30;;;;;;;17.08;53.21;96060.88;2078036;28;20720;-69
2023/10/22 10:15:38;;;;;;;11.43;1.85;;;;;;;17.59;51.99;96072.59;2079019;28;20193;-69
2023/10/22 10:16:43;;;;;;;12.35;2.42;;;;;;;18.65;50.08;96075.25;2079953;28;20223;-68
2023/10/22 10:17:52;;;;;;;9.05;1.83;;;;;;;18.95;48.84;96066.47;2079924;28;20208;-69
2023/10/22 10:19:04;;;;;;;5.78;1.45;;;;;;;18.98;48.34;96073.31;2078992;28;20196;-69
2023/10/22 10:20:26;;;;;;;9.20;1.60;;;;;;;18.20;49.79;96073.75;2081192;28;20200;-68
2023/10/22 10:21:39;;;;;;;6.95;1.50;;;;;;;17.22;51.48;96078.22;2087175;28;20288;-68
2023/10/22 10:22:43;;;;;;;8.13;1.60;;;;;;;16.94;52.75;96076.00;2084779;28;20192;-69
2023/10/22 10:24:25;;;;;;;8.38;2.05;;;;;;;16.21;54.15;96074.63;2078249;28;20211;-68
2023/10/22 10:25:31;;;;;;;9.20;1.80;;;;;;;15.77;55.12;96083.09;2079033;28;20216;-68
2023/10/22 10:26:32;;;;;;;4.10;1.20;;;;;;;15.49;56.25;96086.91;2079589;28;20220;-68
2023/10/22 10:27:49;;;;;;;6.38;1.50;;;;;;;15.57;56.79;96091.66;2079858;28;20189;-69
2023/10/22 10:28:51;;;;;;;11.07;1.40;;;;;;;15.96;55.77;96064.16;2079302;28;20596;-68
2023/10/22 10:30:13;;;;;;;11.00;1.80;;;;;;;16.45;54.84;96083.25;2079321;28;20193;-68
2023/10/22 10:31:33;;;;;;;8.40;1.50;;;;;;;17.28;52.32;96086.47;2081141;28;20217;-68
2023/10/22 10:32:42;;;;;;;6.90;1.50;;;;;;;17.36;51.87;96074.47;2079910;28;20648;-68
2023/10/22 10:34:00;;;;;;;6.30;1.38;;;;;;;16.53;53.27;96084.47;2080270;28;20189;-69
2023/10/22 10:35:04;;;;;;;7.47;1.45;;;;;;;17.17;52.35;96089.16;2079600;28;20338;-68
2023/10/22 10:36:07;;;;;;;3.60;1.08;;;;;;;17.92;51.35;96091.91;2079617;28;20303;-68
2023/10/22 10:37:15;;;;;;;5.47;1.27;;;;;;;18.46;49.91;96091.84;2080569;28;20283;-68
2023/10/22 10:38:21;;;;;;;8.63;1.40;;;;;;;19.15;48.58;96090.34;2080828;28;20196;-68
2023/10/22 10:39:37;;;;;;;11.80;1.70;;;;;;;19.58;47.69;96090.00;2078655;28;20200;-69
2023/10/22 10:40:55;;;;;;;9.57;1.80;;;;;;;20.08;47.34;96085.56;2080447;28;20185;-68
2023/10/22 10:41:57;;;;;;;7.28;1.10;;;;;;;20.26;46.41;96080.38;2079360;28;20216;-68
2023/10/22 10:43:05;;;;;;;5.35;1.70;;;;;;;20.19;46.55;96090.72;2079567;28;20305;-69
2023/10/22 10:44:08;;;;;;;5.40;1.50;;;;;;;19.96;47.36;96091.97;2080431;28;20307;-69
2023/10/22 10:45:10;;;;;;;7.20;1.40;;;;;;;19.46;47.43;96088.44;2077620;28;20243;-69
2023/10/22 10:46:25;;;;;;;7.97;1.77;;;;;;;19.32;47.93;96087.03;2078335;28;20224;-68
2023/10/22 10:47:33;;;;;;;4.45;1.17;;;;;;;19.05;48.00;96098.25;2078622;28;20268;-69
2023/10/22 10:48:42;;;;;;;2.80;1.20;;;;;;;18.78;48.59;96086.44;2078064;28;20193;-69
2023/10/22 10:49:54;;;;;;;10.32;1.50;;;;;;;19.55;47.87;96084.13;2077979;28;20789;-69
2023/10/22 10:51:19;;;;;;;6.93;1.48;;;;;;;18.80;48.10;96086.31;2078475;28;20243;-69
2023/10/22 10:52:20;;;;;;;9.95;1.65;;;;;;;19.00;48.26;96081.94;2079622;28;20246;-69
2023/10/22 10:53:22;;;;;;;3.92;1.17;;;;;;;19.12;48.13;96090.63;2084075;28;20188;-69
2023/10/22 10:54:39;;;;;;;7.53;1.25;;;;;;;19.07;48.29;96086.56;2081401;28;20216;-70
2023/10/22 10:55:41;;;;;;;4.88;1.27;;;;;;;18.64;49.46;96082.34;2079297;28;20189;-69
2023/10/22 10:56:49;;;;;;;5.25;1.42;;;;;;;17.53;50.67;96084.47;2079661;28;20228;-69
2023/10/22 10:57:53;;;;;;;5.20;1.10;;;;;;;18.22;50.01;96082.38;2079357;28;20205;-69
2023/10/22 10:58:54;;;;;;;5.88;1.10;;;;;;;18.41;49.87;96082.50;2080351;28;20197;-69
2023/10/22 10:59:56;;;;;;;11.00;1.55;;;;;;;18.59;48.43;96082.72;2079986;28;20280;-69
2023/10/22 11:00:59;;;;;;;11.80;1.30;;;;;;;18.67;48.54;96078.59;2080768;28;20232;-69
2023/10/22 11:02:11;;;;;;;6.10;1.08;;;;;;;19.13;48.02;96074.59;2082458;28;20270;-69
2023/10/22 11:03:21;;;;;;;8.23;1.30;;;;;;;18.69;48.23;96084.56;2078974;28;20208;-69
2023/10/22 11:04:23;;;;;;;6.85;1.23;;;;;;;18.09;49.31;96077.28;2080230;28;20679;-69
2023/10/22 11:05:39;;;;;;;9.68;1.50;;;;;;;18.59;48.10;96079.25;2079759;28;20258;-69
2023/10/22 11:06:41;;;;;;;4.00;1.30;;;;;;;18.85;48.05;96079.63;2079067;28;20223;-69
2023/10/22 11:07:44;;;;;;;3.97;1.10;;;;;;;17.94;49.39;96079.41;2078231;28;20231;-69
2023/10/22 11:08:45;;;;;;;5.78;1.13;;;;;;;18.27;49.25;96081.03;2077172;28;20632;-69
2023/10/22 11:09:47;;;;;;;5.88;1.65;;;;;;;18.32;48.83;96091.22;2079793;28;20189;-69
2023/10/22 11:10:49;;;;;;;10.43;1.58;;;;;;;18.65;48.67;96088.47;2078787;28;20189;-68
2023/10/22 11:11:55;;;;;;;5.00;1.10;;;;;;;18.83;48.44;96083.38;2080134;28;20544;-69
2023/10/22 11:13:05;;;;;;;5.90;1.48;;;;;;;18.51;48.02;96087.00;2079225;28;20197;-69
2023/10/22 11:14:11;;;;;;;3.20;0.98;;;;;;;17.44;49.90;96074.69;2080848;28;20627;-69
2023/10/22 11:15:13;;;;;;;6.00;1.27;;;;;;;17.07;50.87;96080.28;2087175;28;20245;-70
2023/10/22 11:16:15;;;;;;;6.30;1.30;;;;;;;18.22;49.79;96077.09;2087002;28;20236;-69
2023/10/22 11:17:19;;;;;;;6.30;1.52;;;;;;;18.48;48.37;96082.81;2079224;28;20205;-69
2023/10/22 11:18:21;;;;;;;5.65;1.15;;;;;;;18.75;48.38;96078.75;2079429;28;20204;-72
2023/10/22 11:19:33;;;;;;;4.20;1.13;;;;;;;19.08;47.71;96076.81;2079857;28;20693;-72
2023/10/22 11:20:36;;;;;;;3.90;0.82;;;;;;;18.67;48.12;96073.31;2080732;28;20193;-72
2023/10/22 11:21:38;;;;;;;6.00;1.35;;;;;;;18.62;48.59;96075.53;2080761;28;20312;-72
2023/10/22 11:22:40;;;;;;;6.15;1.30;;;;;;;18.73;48.41;96080.72;2076716;28;20281;-72
2023/10/22 11:23:42;;;;;;;3.70;1.40;;;;;;;17.77;49.49;96075.50;2076293;28;20221;-72
2023/10/22 11:24:44;;;;;;;2.75;0.98;;;;;;;18.34;49.03;96077.88;2078804;28;20191;-72
2023/10/22 11:25:46;;;;;;;6.22;1.20;;;;;;;18.18;49.52;96076.53;2079333;28;20201;-71
2023/10/22 11:26:49;;;;;;;7.15;1.15;;;;;;;18.47;49.23;96073.22;2079835;28;20197;-72
2023/10/22 11:27:51;;;;;;;5.47;1.40;;;;;;;19.05;48.47;96069.97;2080757;28;20237;-72
2023/10/22 11:28:52;;;;;;;7.38;1.08;;;;;;;18.96;47.60;96069.94;2080884;28;20193;-72
2023/10/22 11:29:55;;;;;;;4.20;1.20;;;;;;;19.08;48.05;96072.38;2081284;28;20284;-72
2023/10/22 11:30:57;;;;;;;5.07;1.30;;;;;;;19.18;47.58;96071.56;2080736;28;20690;-72
2023/10/22 11:31:59;;;;;;;2.75;0.90;;;;;;;18.96;47.78;96069.94;2081188;28;20691;-72
2023/10/22 11:33:01;;;;;;;3.13;1.05;;;;;;;18.76;47.78;96064.56;2082114;28;20660;-72
2023/10/22 11:34:13;;;;;;;7.75;1.00;;;;;;;18.21;49.22;96068.34;2079766;28;20718;-72
2023/10/22 11:35:15;;;;;;;5.35;1.45;;;;;;;18.56;49.55;96068.94;2084280;28;20205;-71
2023/10/22 11:36:18;;;;;;;9.48;1.38;;;;;;;19.03;48.07;96074.59;2080959;28;20221;-71
2023/10/22 11:37:42;;;;;;;3.97;1.20;;;;;;;19.21;47.75;96068.63;2080566;28;20660;-71